La Verne, California
Current Conditions -  °F | °C
As of 9:53 PM on Thursday 27 Nov 2014 (Local Time) from KONT Reporting Station
Few Clouds Few Clouds  
Wind Chill: 63°   Ceiling: Unl
Heat Index: 63°   Visibility: 10mi
Dew Point: 30°   Wind: 5mph
Humidity: 29%   Direction: 40°NE
Pressure: 30.05"   Gusts: NA
Location:  34.11°N, 117.76°W
Report Text: KONT 280553Z 04004KT 10SM FEW250 17/M01 A3005 RMK AO2 SLP163 T01721011 10300 20139 50004
Loading
Personal Weather Stations






























Interactive Weather Map New forecast layout! Learn more

10-Day Weather Forecast

Advertisements
Track Severe Weather on mobile